createdAt,value
2022-08-04T05:16:13.444Z,21.32
2022-08-04T05:21:45.306Z,21.11
2022-08-04T05:27:40.036Z,21.02
2022-08-04T05:33:14.204Z,21.23
2022-08-04T05:50:26.060Z,21.64
2022-08-04T05:56:00.241Z,21.66
2022-08-04T06:01:56.275Z,21.89
2022-08-04T06:07:20.924Z,22.29
2022-08-04T06:13:02.866Z,22.64
2022-08-04T06:20:00.790Z,22.88
2022-08-04T06:24:33.862Z,23.03
2022-08-04T06:30:00.190Z,23.20
2022-08-04T06:35:25.102Z,23.38
2022-08-04T06:40:47.393Z,23.57
2022-08-04T06:46:10.996Z,23.75
2022-08-04T06:51:42.418Z,23.88
2022-08-04T06:57:14.290Z,23.95
2022-08-04T07:02:43.243Z,24.03
2022-08-04T07:08:05.708Z,24.03
2022-08-04T07:13:31.604Z,24.08
2022-08-04T07:18:53.760Z,24.13
2022-08-04T07:24:16.983Z,24.19
2022-08-04T07:29:40.330Z,24.21
2022-08-04T07:35:04.527Z,24.24
2022-08-04T07:40:27.129Z,24.31
2022-08-04T07:45:49.655Z,24.40
2022-08-04T07:51:12.053Z,24.52
2022-08-04T07:56:40.146Z,24.62
2022-08-04T08:02:04.050Z,24.70
2022-08-04T08:07:26.047Z,24.78
2022-08-04T08:12:51.172Z,24.98
2022-08-04T08:18:14.547Z,25.24
2022-08-04T08:23:37.204Z,25.46
2022-08-04T08:28:59.662Z,25.72
2022-08-04T08:34:27.965Z,25.97
2022-08-04T08:40:09.309Z,26.19
2022-08-04T08:45:40.866Z,26.40
2022-08-04T08:51:03.093Z,26.62
2022-08-04T08:56:42.446Z,26.82
2022-08-04T09:02:20.466Z,26.98
2022-08-04T09:08:01.603Z,27.15
2022-08-04T09:13:52.578Z,27.32
2022-08-04T09:19:40.088Z,27.32
2022-08-04T09:25:26.782Z,27.47
2022-08-04T09:31:12.105Z,27.70
2022-08-04T09:37:00.803Z,27.88
2022-08-04T09:42:49.353Z,27.99
2022-08-04T09:49:03.180Z,28.00
2022-08-04T09:55:20.023Z,28.14
2022-08-04T10:00:48.740Z,28.35
2022-08-04T10:06:19.649Z,28.49
2022-08-04T10:12:14.036Z,28.63
2022-08-04T10:17:54.538Z,28.72
2022-08-04T10:23:56.010Z,28.87
2022-08-04T10:29:27.127Z,29.02
2022-08-04T10:35:13.530Z,29.08
2022-08-04T10:40:47.303Z,29.15
2022-08-04T10:46:17.739Z,29.26
2022-08-04T10:51:57.363Z,29.36
2022-08-04T10:57:37.606Z,29.41
2022-08-04T11:03:27.126Z,29.44
2022-08-04T11:08:54.253Z,29.54
2022-08-04T11:14:23.858Z,29.59
2022-08-04T11:20:18.123Z,29.62
2022-08-04T11:26:13.270Z,29.74
2022-08-04T11:31:51.227Z,29.87
2022-08-04T11:37:22.255Z,30.02
2022-08-04T11:42:56.125Z,30.11
2022-08-04T11:48:23.183Z,30.12
2022-08-04T11:53:47.598Z,30.13
2022-08-04T11:59:30.367Z,30.21
2022-08-04T12:05:36.035Z,30.49
2022-08-04T12:11:15.272Z,30.72
2022-08-04T12:17:02.196Z,30.92
2022-08-04T12:22:28.355Z,31.10
2022-08-04T12:28:18.895Z,31.29
2022-08-04T12:34:04.245Z,31.38
2022-08-04T12:40:21.370Z,31.64
2022-08-04T12:45:36.180Z,31.90
2022-08-04T12:51:00.299Z,32.13
2022-08-04T12:56:41.787Z,32.41
2022-08-04T13:02:06.929Z,32.61
2022-08-04T13:07:43.839Z,32.64
2022-08-04T13:13:29.704Z,32.80
2022-08-04T13:19:18.840Z,33.10
2022-08-04T13:32:00.806Z,33.33
2022-08-04T13:38:43.750Z,33.54
2022-08-04T13:45:34.727Z,33.74
2022-08-04T13:52:19.825Z,33.62
2022-08-04T13:59:04.921Z,33.51
2022-08-04T14:05:59.540Z,33.42
2022-08-04T14:20:01.933Z,33.94
2022-08-04T14:26:48.828Z,34.40
2022-08-04T14:34:00.924Z,34.75
2022-08-04T14:40:38.471Z,35.00
2022-08-04T14:47:13.464Z,35.48
2022-08-04T14:53:43.701Z,35.82
2022-08-04T15:00:29.693Z,36.14
2022-08-04T15:07:12.901Z,36.01
2022-08-04T15:13:59.735Z,35.57
2022-08-04T15:20:42.904Z,35.14
2022-08-04T15:33:21.902Z,34.77
2022-08-04T15:45:07.341Z,34.94
2022-08-04T15:51:38.127Z,35.17
2022-08-04T15:57:41.891Z,34.86
2022-08-04T16:03:57.793Z,34.43
2022-08-04T16:10:23.306Z,34.32
2022-08-04T16:16:45.794Z,34.02
2022-08-04T16:23:13.559Z,34.03
2022-08-04T16:29:51.780Z,34.24
2022-08-04T16:35:48.191Z,34.30
2022-08-04T16:42:00.940Z,34.40
2022-08-04T16:48:15.982Z,34.63
2022-08-04T16:54:58.335Z,35.43
2022-08-04T17:01:03.515Z,36.45
2022-08-04T17:07:07.135Z,36.43
2022-08-04T17:14:03.272Z,36.26
2022-08-04T17:19:55.480Z,35.92
2022-08-04T17:25:51.788Z,35.51
2022-08-04T17:32:07.195Z,34.99
2022-08-04T17:38:34.256Z,34.58
2022-08-04T17:44:24.180Z,33.67
2022-08-04T17:50:12.852Z,32.49
2022-08-04T17:56:09.801Z,31.14
2022-08-04T18:02:08.886Z,30.13
2022-08-04T18:08:41.004Z,29.24
2022-08-04T18:15:25.597Z,28.37
2022-08-04T18:22:28.292Z,27.70
2022-08-04T18:29:31.071Z,27.10
2022-08-04T18:36:32.664Z,26.67
2022-08-04T18:47:19.380Z,26.06
2022-08-04T18:52:46.062Z,25.79
2022-08-04T18:58:26.757Z,25.52
2022-08-04T19:03:57.844Z,25.22
2022-08-04T19:09:21.868Z,24.92
2022-08-04T19:14:48.662Z,24.66
2022-08-04T19:20:24.224Z,24.44
2022-08-04T19:26:01.711Z,24.23
2022-08-04T19:31:34.386Z,24.03
2022-08-04T19:37:07.471Z,23.83
2022-08-04T19:42:40.664Z,23.64
2022-08-04T19:48:17.870Z,23.47
2022-08-04T19:53:44.783Z,23.32
2022-08-04T19:59:16.066Z,23.20
2022-08-04T20:04:38.638Z,23.07
2022-08-04T20:10:06.740Z,22.98
2022-08-04T20:15:30.033Z,22.89
2022-08-04T20:20:55.667Z,22.79
2022-08-04T20:26:17.799Z,22.69
2022-08-04T20:31:43.283Z,22.60
2022-08-04T20:37:06.569Z,22.49
2022-08-04T20:42:40.185Z,22.37
2022-08-04T20:48:10.416Z,22.26
2022-08-04T20:53:46.834Z,22.15
2022-08-04T21:00:00.000Z,22.00
2022-08-04T21:06:04.153Z,21.87
2022-08-04T21:12:50.029Z,21.77
2022-08-04T21:19:32.490Z,21.63
2022-08-04T21:25:03.923Z,21.49
2022-08-04T21:30:29.547Z,21.38
2022-08-04T21:37:09.991Z,21.31
2022-08-04T21:51:00.925Z,21.91
2022-08-04T22:03:52.644Z,22.54
2022-08-04T22:10:37.969Z,22.84
2022-08-04T22:17:04.377Z,22.99
2022-08-04T22:23:54.554Z,23.09
2022-08-04T22:30:48.330Z,22.85
2022-08-04T22:37:21.072Z,22.76
2022-08-04T22:44:19.461Z,22.70
2022-08-04T22:51:06.959Z,22.75
2022-08-04T22:58:04.837Z,22.70
2022-08-04T23:04:30.650Z,22.71
2022-08-04T23:11:13.938Z,22.76
2022-08-04T23:17:58.599Z,22.97
2022-08-04T23:24:21.823Z,23.05
2022-08-04T23:30:29.826Z,23.03
2022-08-04T23:36:33.670Z,22.90
2022-08-04T23:42:26.323Z,22.54
2022-08-04T23:48:56.603Z,22.36
2022-08-04T23:55:21.591Z,22.38
